createdAt,value
2022-09-18T00:01:51.924Z,2.07
2022-09-18T00:04:21.887Z,1.73
2022-09-18T00:06:51.644Z,2.23
2022-09-18T00:09:19.094Z,1.70
2022-09-18T00:11:52.407Z,0.87
2022-09-18T00:14:25.331Z,1.10
2022-09-18T00:16:55.791Z,1.27
2022-09-18T00:19:26.824Z,2.00
2022-09-18T00:21:59.380Z,1.37
2022-09-18T00:24:29.648Z,3.10
2022-09-18T00:27:00.132Z,1.43
2022-09-18T00:29:32.758Z,1.73
2022-09-18T00:32:05.208Z,1.87
2022-09-18T00:34:38.315Z,0.97
2022-09-18T00:37:09.495Z,2.40
2022-09-18T00:39:36.969Z,2.73
2022-09-18T00:42:06.216Z,2.60
2022-09-18T00:44:50.994Z,0.70
2022-09-18T00:47:33.290Z,1.67
2022-09-18T00:50:06.138Z,1.80
2022-09-18T00:52:51.683Z,1.00
2022-09-18T00:55:31.293Z,1.90
2022-09-18T00:57:59.957Z,1.10
2022-09-18T01:00:35.316Z,2.50
2022-09-18T01:03:04.268Z,1.27
2022-09-18T01:05:52.645Z,1.17
2022-09-18T01:08:27.867Z,2.73
2022-09-18T01:11:15.041Z,1.30
2022-09-18T01:14:03.801Z,1.27
2022-09-18T01:16:52.299Z,1.20
2022-09-18T01:19:23.572Z,1.00
2022-09-18T01:22:13.839Z,1.27
2022-09-18T01:25:09.577Z,1.30
2022-09-18T01:27:54.614Z,1.77
2022-09-18T01:30:27.286Z,2.10
2022-09-18T01:33:12.889Z,1.97
2022-09-18T01:35:57.701Z,1.10
2022-09-18T01:38:51.437Z,1.00
2022-09-18T01:41:26.032Z,0.90
2022-09-18T01:44:16.132Z,1.13
2022-09-18T01:46:46.015Z,1.00
2022-09-18T01:49:20.245Z,1.00
2022-09-18T01:52:06.467Z,1.07
2022-09-18T01:54:43.527Z,0.80
2022-09-18T01:57:25.800Z,1.83
2022-09-18T02:00:08.200Z,1.10
2022-09-18T02:02:46.437Z,1.87
2022-09-18T02:05:22.508Z,0.90
2022-09-18T02:07:54.309Z,1.00
2022-09-18T02:10:28.907Z,0.37
2022-09-18T02:13:00.392Z,1.77
2022-09-18T02:15:32.886Z,1.17
2022-09-18T02:18:04.003Z,1.90
2022-09-18T02:20:37.975Z,1.27
2022-09-18T02:23:19.030Z,1.40
2022-09-18T02:28:41.819Z,1.53
2022-09-18T02:31:12.428Z,0.60
2022-09-18T02:33:43.791Z,6.47
2022-09-18T02:39:35.439Z,0.80
2022-09-18T02:42:10.985Z,2.20
2022-09-18T02:44:49.218Z,1.00
2022-09-18T02:47:52.699Z,1.50
2022-09-18T02:50:40.499Z,0.97
2022-09-18T02:53:13.545Z,5.17
2022-09-18T02:55:47.259Z,1.00
2022-09-18T02:58:24.655Z,1.17
2022-09-18T03:03:44.658Z,1.87
2022-09-18T03:06:16.565Z,0.93
2022-09-18T03:08:44.827Z,0.60
2022-09-18T03:11:17.531Z,1.70
2022-09-18T03:13:47.040Z,0.83
2022-09-18T03:16:23.633Z,1.40
2022-09-18T03:18:54.988Z,1.83
2022-09-18T03:21:31.830Z,3.13
2022-09-18T03:24:03.660Z,0.90
2022-09-18T03:26:37.182Z,3.33
2022-09-18T03:29:18.168Z,2.90
2022-09-18T03:31:50.083Z,1.03
2022-09-18T03:34:22.093Z,0.83
2022-09-18T03:39:37.291Z,3.47
2022-09-18T03:42:07.467Z,1.10
2022-09-18T03:44:35.908Z,0.87
2022-09-18T03:47:06.446Z,0.60
2022-09-18T03:49:38.141Z,1.60
2022-09-18T03:54:50.800Z,0.97
2022-09-18T03:57:23.508Z,1.03
2022-09-18T03:59:55.772Z,0.70
2022-09-18T04:02:27.552Z,2.07
2022-09-18T04:05:05.434Z,0.90
2022-09-18T04:07:35.278Z,1.23
2022-09-18T04:10:07.051Z,0.70
2022-09-18T04:12:42.114Z,0.50
2022-09-18T04:15:14.382Z,1.00
2022-09-18T04:17:47.373Z,1.67
2022-09-18T04:20:19.082Z,2.03
2022-09-18T04:22:49.445Z,1.27
2022-09-18T04:25:21.452Z,0.60
2022-09-18T04:27:51.212Z,1.10
2022-09-18T04:30:23.481Z,0.70
2022-09-18T04:32:55.187Z,0.80
2022-09-18T04:35:26.484Z,0.63
2022-09-18T04:37:58.985Z,1.17
2022-09-18T04:40:31.019Z,1.47
2022-09-18T04:43:02.679Z,0.50
2022-09-18T04:45:33.734Z,0.60
2022-09-18T04:48:03.990Z,0.80
2022-09-18T04:50:36.603Z,1.13
2022-09-18T04:53:09.545Z,2.00
2022-09-18T04:55:40.023Z,1.30
2022-09-18T04:58:11.786Z,0.70
2022-09-18T05:03:25.016Z,1.00
2022-09-18T05:05:55.004Z,1.90
2022-09-18T05:08:26.360Z,1.63
2022-09-18T05:10:56.933Z,1.00
2022-09-18T05:13:26.306Z,0.80
2022-09-18T05:16:01.863Z,1.63
2022-09-18T05:21:19.167Z,0.57
2022-09-18T05:23:48.869Z,0.70
2022-09-18T05:26:21.142Z,1.80
2022-09-18T05:28:52.181Z,1.03
2022-09-18T05:31:28.503Z,2.07
2022-09-18T05:34:01.078Z,1.03
2022-09-18T05:36:31.919Z,1.07
2022-09-18T05:39:17.391Z,0.73
2022-09-18T05:41:52.993Z,1.53
2022-09-18T05:44:37.092Z,0.70
2022-09-18T05:47:08.076Z,1.27
2022-09-18T05:49:40.319Z,1.23
2022-09-18T05:52:11.642Z,0.50
2022-09-18T05:54:44.534Z,2.17
2022-09-18T05:57:17.847Z,1.27
2022-09-18T05:59:49.049Z,1.47
2022-09-18T06:02:19.300Z,1.00
2022-09-18T06:04:54.437Z,1.50
2022-09-18T06:07:26.517Z,2.53
2022-09-18T06:09:57.599Z,2.23
2022-09-18T06:12:29.623Z,1.97
2022-09-18T06:15:02.922Z,1.40
2022-09-18T06:17:32.493Z,1.93
2022-09-18T06:20:02.197Z,3.33
2022-09-18T06:22:33.328Z,1.07
2022-09-18T06:25:08.336Z,2.80
2022-09-18T06:27:40.393Z,1.10
2022-09-18T06:30:11.638Z,1.30
2022-09-18T06:32:43.913Z,1.00
2022-09-18T06:35:13.964Z,1.17
2022-09-18T06:37:44.237Z,1.07
2022-09-18T06:40:18.799Z,2.00
2022-09-18T06:43:02.229Z,2.50
2022-09-18T06:45:35.735Z,2.43
2022-09-18T06:48:09.264Z,0.73
2022-09-18T06:50:37.870Z,1.13
2022-09-18T06:53:12.824Z,1.43
2022-09-18T06:55:48.017Z,2.13
2022-09-18T06:58:24.559Z,1.03
2022-09-18T07:00:56.420Z,2.13
2022-09-18T07:03:27.520Z,2.27
2022-09-18T07:05:57.709Z,1.40
2022-09-18T07:08:26.851Z,1.00
2022-09-18T07:10:59.696Z,4.53
2022-09-18T07:13:37.991Z,2.90
2022-09-18T07:16:08.945Z,1.17
2022-09-18T07:18:39.016Z,1.07
2022-09-18T07:21:11.300Z,1.27
2022-09-18T07:23:40.240Z,2.03
2022-09-18T07:26:14.852Z,1.93
2022-09-18T07:28:47.146Z,1.03
2022-09-18T07:31:18.652Z,1.47
2022-09-18T07:33:54.261Z,1.23
2022-09-18T07:36:26.169Z,1.87
2022-09-18T07:38:58.425Z,1.63
2022-09-18T07:41:28.208Z,2.07
2022-09-18T07:44:00.399Z,2.17
2022-09-18T07:46:30.919Z,1.23
2022-09-18T07:49:00.529Z,1.57
2022-09-18T07:51:30.063Z,2.30
2022-09-18T07:54:03.320Z,3.67
2022-09-18T07:56:34.866Z,2.77
2022-09-18T07:59:07.033Z,4.80
2022-09-18T08:01:39.412Z,3.07
2022-09-18T08:04:08.032Z,1.73
2022-09-18T08:06:38.076Z,5.70
2022-09-18T08:09:10.139Z,3.07
2022-09-18T08:11:45.079Z,1.30
2022-09-18T08:14:16.455Z,2.67
2022-09-18T08:16:49.408Z,2.20
2022-09-18T08:19:18.364Z,2.30
2022-09-18T08:21:48.372Z,2.77
2022-09-18T08:24:39.376Z,1.43
2022-09-18T08:27:14.903Z,2.13
2022-09-18T08:29:47.018Z,1.30
2022-09-18T08:32:19.830Z,1.60
2022-09-18T08:34:49.946Z,2.17
2022-09-18T08:37:21.590Z,3.40
2022-09-18T08:39:50.580Z,5.13
2022-09-18T08:42:54.787Z,20.03
2022-09-18T08:45:43.000Z,16.67
2022-09-18T08:48:17.418Z,10.17
2022-09-18T08:51:05.628Z,12.70
2022-09-18T08:53:42.674Z,25.00
2022-09-18T08:56:19.999Z,55.90
2022-09-18T08:59:00.116Z,65.03
2022-09-18T09:02:00.897Z,51.57
2022-09-18T09:04:30.297Z,41.70
2022-09-18T09:07:20.279Z,31.43
2022-09-18T09:10:11.605Z,32.93
2022-09-18T09:12:51.223Z,19.50
2022-09-18T09:15:27.260Z,20.90
2022-09-18T09:18:14.981Z,27.47
2022-09-18T09:20:56.410Z,25.03
2022-09-18T09:23:43.712Z,20.13
2022-09-18T09:26:21.995Z,20.23
2022-09-18T09:29:19.213Z,15.03
2022-09-18T09:32:12.100Z,19.80
2022-09-18T09:34:47.081Z,79.67
2022-09-18T09:37:17.848Z,49.57
2022-09-18T09:40:01.804Z,46.03
2022-09-18T09:42:46.285Z,33.33
2022-09-18T09:45:21.630Z,30.53
2022-09-18T09:48:23.794Z,28.93
2022-09-18T09:50:58.486Z,50.50
2022-09-18T09:53:29.943Z,32.43
2022-09-18T09:56:15.188Z,33.03
2022-09-18T09:58:53.815Z,25.07
2022-09-18T10:01:40.924Z,21.97
2022-09-18T10:04:36.766Z,16.27
2022-09-18T10:07:22.553Z,23.57
2022-09-18T10:10:13.901Z,14.57
2022-09-18T10:15:53.823Z,18.83
2022-09-18T10:18:36.877Z,21.30
2022-09-18T10:21:27.142Z,14.83
2022-09-18T10:24:11.839Z,17.50
2022-09-18T10:26:56.794Z,12.37
2022-09-18T10:29:26.904Z,14.87
2022-09-18T10:32:00.816Z,11.90
2022-09-18T10:34:50.188Z,7.80
2022-09-18T10:37:33.766Z,12.33
2022-09-18T10:40:05.137Z,9.87
2022-09-18T10:42:37.779Z,8.70
2022-09-18T10:45:20.360Z,9.90
2022-09-18T10:47:50.130Z,7.57
2022-09-18T10:50:24.903Z,6.97
2022-09-18T10:52:59.383Z,15.70
2022-09-18T10:55:31.760Z,6.70
2022-09-18T10:58:02.363Z,10.97
2022-09-18T11:00:36.198Z,11.47
2022-09-18T11:03:16.972Z,5.67
2022-09-18T11:05:58.016Z,10.83
2022-09-18T11:08:27.631Z,10.50
2022-09-18T11:11:13.842Z,10.67
2022-09-18T11:13:57.583Z,4.53
2022-09-18T11:16:31.285Z,9.50
2022-09-18T11:19:20.748Z,8.87
2022-09-18T11:21:50.477Z,11.97
2022-09-18T11:24:25.022Z,9.90
2022-09-18T11:26:56.997Z,6.73
2022-09-18T11:29:25.843Z,13.10
2022-09-18T11:32:02.906Z,9.03
2022-09-18T11:37:44.740Z,4.70
2022-09-18T11:40:33.683Z,8.30
2022-09-18T11:43:06.002Z,5.33
2022-09-18T11:45:58.609Z,4.50
2022-09-18T11:48:51.068Z,2.50
2022-09-18T11:51:28.714Z,7.60
2022-09-18T11:54:06.839Z,3.97
2022-09-18T11:56:40.741Z,4.57
2022-09-18T11:59:33.202Z,2.87
2022-09-18T12:02:19.060Z,5.60
2022-09-18T12:05:10.844Z,3.20
2022-09-18T12:07:49.839Z,4.10
2022-09-18T12:10:35.601Z,3.80
2022-09-18T12:13:23.633Z,5.30
2022-09-18T12:16:00.854Z,3.83
2022-09-18T12:18:34.312Z,5.70
2022-09-18T12:21:10.724Z,1.77
2022-09-18T12:23:39.934Z,6.27
2022-09-18T12:26:16.557Z,3.00
2022-09-18T12:28:51.739Z,2.63
2022-09-18T12:31:35.454Z,4.47
2022-09-18T12:34:20.692Z,2.87
2022-09-18T12:36:57.246Z,4.37
2022-09-18T12:39:46.795Z,3.97
2022-09-18T12:42:38.045Z,1.77
2022-09-18T12:45:31.482Z,5.70
2022-09-18T12:48:19.708Z,4.40
2022-09-18T12:50:52.057Z,6.73
2022-09-18T12:53:36.674Z,8.73
2022-09-18T12:56:07.984Z,7.60
2022-09-18T12:58:58.982Z,3.63
2022-09-18T13:01:58.229Z,9.47
2022-09-18T13:04:47.528Z,8.10
2022-09-18T13:07:36.710Z,15.97
2022-09-18T13:10:21.940Z,19.97
2022-09-18T13:13:02.614Z,12.77
2022-09-18T13:18:33.926Z,18.47
2022-09-18T13:21:08.938Z,17.87
2022-09-18T13:23:45.925Z,18.40
2022-09-18T13:26:17.035Z,16.70
2022-09-18T13:28:52.283Z,12.03
2022-09-18T13:31:44.179Z,19.33
2022-09-18T13:37:14.738Z,15.50
2022-09-18T13:40:08.841Z,16.20
2022-09-18T13:42:44.402Z,14.43
2022-09-18T13:45:23.362Z,21.07
2022-09-18T13:48:20.001Z,19.40
2022-09-18T13:51:04.756Z,17.20
2022-09-18T13:53:46.146Z,30.87
2022-09-18T13:56:18.418Z,19.00
2022-09-18T13:58:53.103Z,20.47
2022-09-18T14:01:42.993Z,22.20
2022-09-18T14:04:32.062Z,23.80
2022-09-18T14:07:09.789Z,13.50
2022-09-18T14:10:03.042Z,14.43
2022-09-18T14:12:37.058Z,15.37
2022-09-18T14:15:28.139Z,12.10
2022-09-18T14:18:20.673Z,14.20
2022-09-18T14:20:54.100Z,12.77
2022-09-18T14:23:42.282Z,17.40
2022-09-18T14:26:39.955Z,18.83
2022-09-18T14:29:10.978Z,11.83
2022-09-18T14:31:56.275Z,11.73
2022-09-18T14:34:54.995Z,21.17
2022-09-18T14:37:37.163Z,18.50
2022-09-18T14:40:14.635Z,16.07
2022-09-18T14:42:42.214Z,12.17
2022-09-18T14:45:24.452Z,10.47
2022-09-18T14:47:53.136Z,11.83
2022-09-18T14:50:31.876Z,14.17
2022-09-18T14:53:06.079Z,9.70
2022-09-18T14:55:42.152Z,10.50
2022-09-18T14:58:23.098Z,10.87
2022-09-18T15:01:04.267Z,10.30
2022-09-18T15:03:38.671Z,16.13
2022-09-18T15:06:11.149Z,12.13
2022-09-18T15:08:43.866Z,13.47
2022-09-18T15:11:16.584Z,8.47
2022-09-18T15:13:46.886Z,15.30
2022-09-18T15:16:24.184Z,12.93
2022-09-18T15:18:59.188Z,10.23
2022-09-18T15:24:16.251Z,12.70
2022-09-18T15:26:57.627Z,7.80
2022-09-18T15:29:32.241Z,11.10
2022-09-18T15:32:02.919Z,6.40
2022-09-18T15:34:37.299Z,14.43
2022-09-18T15:37:08.242Z,7.87
2022-09-18T15:39:39.056Z,9.27
2022-09-18T15:42:24.866Z,4.70
2022-09-18T15:44:55.221Z,5.50
2022-09-18T15:47:41.344Z,5.17
2022-09-18T15:50:19.678Z,8.03
2022-09-18T15:52:57.317Z,6.70
2022-09-18T15:55:34.612Z,4.30
2022-09-18T16:01:02.268Z,6.63
2022-09-18T16:03:44.212Z,4.10
2022-09-18T16:06:28.151Z,7.97
2022-09-18T16:14:43.659Z,5.37
2022-09-18T16:17:35.997Z,6.50
2022-09-18T16:20:31.188Z,7.10
2022-09-18T16:23:25.247Z,5.30
2022-09-18T16:26:14.258Z,5.13
2022-09-18T16:28:47.076Z,6.27
2022-09-18T16:31:22.829Z,6.23
2022-09-18T16:34:07.118Z,5.03
2022-09-18T16:36:41.942Z,3.43
2022-09-18T16:39:17.560Z,3.07
2022-09-18T16:41:52.500Z,4.20
2022-09-18T16:44:24.166Z,3.00
2022-09-18T16:46:59.881Z,4.77
2022-09-18T16:49:29.911Z,6.27
2022-09-18T16:52:01.479Z,3.50
2022-09-18T16:54:31.580Z,3.83
2022-09-18T16:57:30.471Z,4.57
2022-09-18T17:00:05.635Z,3.63
2022-09-18T17:02:39.307Z,3.40
2022-09-18T17:05:17.367Z,3.23
2022-09-18T17:07:47.722Z,4.20
2022-09-18T17:10:24.050Z,4.03
2022-09-18T17:12:54.933Z,2.10
2022-09-18T17:15:28.479Z,5.10
2022-09-18T17:18:00.049Z,4.23
2022-09-18T17:20:31.697Z,8.13
2022-09-18T17:23:06.400Z,6.40
2022-09-18T17:25:48.252Z,4.23
2022-09-18T17:28:20.952Z,5.30
2022-09-18T17:31:05.581Z,5.17
2022-09-18T17:33:38.323Z,6.77
2022-09-18T17:36:11.833Z,6.57
2022-09-18T17:38:43.009Z,7.03
2022-09-18T17:41:16.874Z,6.43
2022-09-18T17:43:49.760Z,4.80
2022-09-18T17:46:20.535Z,5.63
2022-09-18T17:49:05.174Z,5.43
2022-09-18T17:51:38.982Z,5.13
2022-09-18T17:54:10.902Z,6.03
2022-09-18T17:56:40.816Z,4.50
2022-09-18T17:59:16.267Z,7.07
2022-09-18T18:01:47.295Z,3.40
2022-09-18T18:04:24.930Z,10.13
2022-09-18T18:06:59.767Z,3.27
2022-09-18T18:09:28.182Z,5.07
2022-09-18T18:11:59.490Z,6.30
2022-09-18T18:14:31.024Z,3.90
2022-09-18T18:17:04.339Z,5.90
2022-09-18T18:19:35.092Z,10.83
2022-09-18T18:22:09.358Z,9.57
2022-09-18T18:24:50.457Z,10.43
2022-09-18T18:27:24.706Z,8.67
2022-09-18T18:29:59.720Z,5.17
2022-09-18T18:32:39.178Z,6.57
2022-09-18T18:35:15.683Z,7.87
2022-09-18T18:37:50.073Z,11.00
2022-09-18T18:40:19.305Z,8.23
2022-09-18T18:42:52.333Z,5.57
2022-09-18T18:45:25.693Z,4.80
2022-09-18T18:47:58.005Z,5.27
2022-09-18T18:50:42.056Z,8.17
2022-09-18T18:53:12.198Z,4.50
2022-09-18T18:55:48.449Z,5.27
2022-09-18T18:58:20.961Z,3.80
2022-09-18T19:00:52.043Z,7.50
2022-09-18T19:03:25.048Z,3.70
2022-09-18T19:06:05.937Z,4.60
2022-09-18T19:08:38.123Z,3.63
2022-09-18T19:11:10.228Z,4.20
2022-09-18T19:13:45.637Z,4.90
2022-09-18T19:16:18.085Z,4.70
2022-09-18T19:19:02.852Z,4.97
2022-09-18T19:21:35.027Z,4.60
2022-09-18T19:24:05.867Z,4.20
2022-09-18T19:26:40.260Z,4.33
2022-09-18T19:29:17.878Z,4.40
2022-09-18T19:31:53.397Z,3.17
2022-09-18T19:34:29.433Z,2.63
2022-09-18T19:37:01.804Z,3.50
2022-09-18T19:39:31.682Z,3.83
2022-09-18T19:42:21.369Z,4.17
2022-09-18T19:44:56.022Z,1.60
2022-09-18T19:47:39.909Z,3.70
2022-09-18T19:50:10.943Z,3.37
2022-09-18T19:52:46.001Z,2.00
2022-09-18T19:55:19.273Z,2.10
2022-09-18T19:57:53.962Z,1.97
2022-09-18T20:00:26.223Z,3.03
2022-09-18T20:03:03.918Z,3.93
2022-09-18T20:05:34.431Z,3.80
2022-09-18T20:08:08.178Z,3.63
2022-09-18T20:10:42.527Z,3.33
2022-09-18T20:13:17.347Z,4.47
2022-09-18T20:15:50.212Z,8.90
2022-09-18T20:18:22.109Z,3.20
2022-09-18T20:21:03.090Z,2.97
2022-09-18T20:23:31.635Z,3.30
2022-09-18T20:26:01.336Z,3.03
2022-09-18T20:28:36.071Z,2.50
2022-09-18T20:31:12.046Z,3.50
2022-09-18T20:33:42.432Z,2.67
2022-09-18T20:36:18.256Z,2.57
2022-09-18T20:38:59.483Z,3.20
2022-09-18T20:41:31.870Z,2.70
2022-09-18T20:44:05.770Z,2.00
2022-09-18T20:46:41.455Z,2.30
2022-09-18T20:49:20.113Z,2.67
2022-09-18T20:51:55.433Z,2.70
2022-09-18T20:54:25.734Z,2.20
2022-09-18T20:57:04.734Z,3.13
2022-09-18T20:59:37.429Z,1.90
2022-09-18T21:02:18.458Z,1.83
2022-09-18T21:04:59.302Z,1.30
2022-09-18T21:10:17.611Z,1.87
2022-09-18T21:12:45.415Z,3.50
2022-09-18T21:15:20.104Z,2.13
2022-09-18T21:17:50.419Z,1.80
2022-09-18T21:20:19.018Z,1.53
2022-09-18T21:23:07.943Z,2.03
2022-09-18T21:25:36.274Z,1.60
2022-09-18T21:28:11.069Z,2.33
2022-09-18T21:31:05.713Z,3.13
2022-09-18T21:33:37.486Z,1.83
2022-09-18T21:36:09.003Z,4.10
2022-09-18T21:38:42.249Z,5.07
2022-09-18T21:41:13.758Z,4.20
2022-09-18T21:43:44.918Z,2.33
2022-09-18T21:46:18.928Z,3.10
2022-09-18T21:48:47.585Z,3.23
2022-09-18T21:51:21.149Z,2.30
2022-09-18T21:53:53.191Z,1.97
2022-09-18T21:56:25.568Z,3.37
2022-09-18T21:58:59.628Z,3.50
2022-09-18T22:01:34.747Z,2.40
2022-09-18T22:04:07.179Z,2.17
2022-09-18T22:06:45.890Z,1.30
2022-09-18T22:09:20.987Z,1.93
2022-09-18T22:11:56.703Z,1.77
2022-09-18T22:14:30.906Z,1.53
2022-09-18T22:17:15.987Z,1.70
2022-09-18T22:19:48.754Z,2.00
2022-09-18T22:22:22.147Z,2.37
2022-09-18T22:24:52.042Z,2.57
2022-09-18T22:27:20.636Z,1.47
2022-09-18T22:29:52.789Z,3.00
2022-09-18T22:32:26.573Z,3.10
2022-09-18T22:34:58.496Z,1.67
2022-09-18T22:37:31.214Z,2.43
2022-09-18T22:40:05.828Z,1.67
2022-09-18T22:42:36.526Z,1.53
2022-09-18T22:45:08.233Z,2.13
2022-09-18T22:47:38.294Z,1.67
2022-09-18T22:50:16.488Z,1.90
2022-09-18T22:52:44.373Z,1.53
2022-09-18T22:55:13.794Z,2.10
2022-09-18T22:57:43.944Z,2.73
2022-09-18T23:00:18.019Z,1.17
2022-09-18T23:02:47.824Z,1.47
2022-09-18T23:05:20.071Z,1.53
2022-09-18T23:07:52.110Z,1.87
2022-09-18T23:10:29.085Z,0.87
2022-09-18T23:13:01.001Z,2.10
2022-09-18T23:15:30.513Z,2.83
2022-09-18T23:18:05.724Z,2.17
2022-09-18T23:20:38.014Z,1.17
2022-09-18T23:26:01.517Z,1.67
2022-09-18T23:28:36.476Z,2.23
2022-09-18T23:31:08.810Z,2.43
2022-09-18T23:33:39.321Z,1.63
2022-09-18T23:36:14.791Z,2.57
2022-09-18T23:38:52.450Z,2.40
2022-09-18T23:41:22.426Z,0.73
2022-09-18T23:43:54.928Z,2.13
2022-09-18T23:46:35.961Z,2.70
2022-09-18T23:49:07.811Z,1.37
2022-09-18T23:51:41.187Z,2.63
2022-09-18T23:54:18.697Z,1.50
2022-09-18T23:56:50.228Z,2.27
2022-09-18T23:59:22.801Z,2.00
